RYR9749 EKCH-EPMO
Flight info
| Callsign | RYR9749 |
|---|---|
| Flight time | 1h 3m |
| Altitude | 33000 |
| Route | SIMEG Z491 TELMO DCT KOLOB N195 SORIX |
| Aircraft | B38M/M-SDE1FGHILORVWXY/HB1 |
Departure
| Time | 2026-04-24 12:03 |
|---|---|
| Airport | Copenhagen Kastrup Airport (EKCH) |
Arrival
| Time | 2026-04-24 13:07 |
|---|---|
| Airport | Warsaw Modlin Airport (EPMO) |
| Time | Latitude | Longitude | Altitude | Speed | Heading |
|---|---|---|---|---|---|
| 2026-04-24 11:38 | 55.62573 | 12.65033 | 50 ft | 0 kts | 276° |
| 2026-04-24 11:52 | 55.62573 | 12.65045 | 23 ft | 0 kts | 257° |
| 2026-04-24 11:52 | 55.62573 | 12.65048 | 23 ft | 0 kts | 254° |
| 2026-04-24 11:53 | 55.62574 | 12.65052 | 23 ft | 1 kts | 249° |
| 2026-04-24 11:53 | 55.62576 | 12.65060 | 28 ft | 1 kts | 239° |
| 2026-04-24 11:53 | 55.62590 | 12.65081 | 28 ft | 0 kts | 190° |
| 2026-04-24 11:57 | 55.62586 | 12.65082 | 28 ft | 1 kts | 176° |
| 2026-04-24 11:57 | 55.62568 | 12.65089 | 22 ft | 4 kts | 166° |
| 2026-04-24 11:57 | 55.62540 | 12.65128 | 21 ft | 7 kts | 129° |
| 2026-04-24 11:57 | 55.62500 | 12.65174 | 24 ft | 6 kts | 163° |
| 2026-04-24 11:58 | 55.62453 | 12.65186 | 22 ft | 7 kts | 176° |
| 2026-04-24 11:58 | 55.62400 | 12.65190 | 25 ft | 8 kts | 178° |
| 2026-04-24 11:58 | 55.62338 | 12.65194 | 25 ft | 10 kts | 178° |
| 2026-04-24 11:58 | 55.62253 | 12.65197 | 24 ft | 14 kts | 185° |
| 2026-04-24 11:59 | 55.62152 | 12.65118 | 30 ft | 18 kts | 212° |
| 2026-04-24 11:59 | 55.62024 | 12.64968 | 26 ft | 26 kts | 213° |
| 2026-04-24 11:59 | 55.61911 | 12.64837 | 19 ft | 2 kts | 212° |
| 2026-04-24 11:59 | 55.61895 | 12.64819 | 19 ft | 4 kts | 211° |
| 2026-04-24 12:00 | 55.61863 | 12.64784 | 20 ft | 8 kts | 212° |
| 2026-04-24 12:00 | 55.61790 | 12.64701 | 23 ft | 17 kts | 213° |
| 2026-04-24 12:00 | 55.61659 | 12.64549 | 26 ft | 27 kts | 214° |
| 2026-04-24 12:00 | 55.61468 | 12.64334 | 26 ft | 37 kts | 213° |
| 2026-04-24 12:01 | 55.61241 | 12.64066 | 20 ft | 35 kts | 214° |
| 2026-04-24 12:01 | 55.61047 | 12.63843 | 24 ft | 31 kts | 211° |
| 2026-04-24 12:01 | 55.60886 | 12.63658 | 24 ft | 19 kts | 214° |
| 2026-04-24 12:01 | 55.60774 | 12.63622 | 26 ft | 17 kts | 150° |
| 2026-04-24 12:02 | 55.60699 | 12.63779 | 24 ft | 17 kts | 124° |
| 2026-04-24 12:02 | 55.60684 | 12.63891 | 26 ft | 0 kts | 42° |
| 2026-04-24 12:02 | 55.60691 | 12.63903 | 26 ft | 0 kts | 43° |
| 2026-04-24 12:02 | 55.60705 | 12.63923 | 30 ft | 11 kts | 37° |
| 2026-04-24 12:03 | 55.60967 | 12.64317 | 23 ft | 88 kts | 40° |
| 2026-04-24 12:03 | 55.61615 | 12.65260 | 37 ft | 148 kts | 33° |
| 2026-04-24 12:03 | 55.62508 | 12.66506 | 416 ft | 178 kts | 36° |
| 2026-04-24 12:03 | 55.63528 | 12.67871 | 1294 ft | 185 kts | 32° |
| 2026-04-24 12:04 | 55.64540 | 12.69327 | 2225 ft | 192 kts | 39° |
| 2026-04-24 12:04 | 55.65540 | 12.71023 | 2910 ft | 206 kts | 38° |
| 2026-04-24 12:04 | 55.66668 | 12.72837 | 3499 ft | 231 kts | 37° |
| 2026-04-24 12:04 | 55.67925 | 12.74799 | 4225 ft | 248 kts | 37° |
| 2026-04-24 12:05 | 55.69165 | 12.77015 | 5052 ft | 265 kts | 54° |
| 2026-04-24 12:05 | 55.69684 | 12.80152 | 6218 ft | 273 kts | 86° |
| 2026-04-24 12:05 | 55.69260 | 12.83508 | 7093 ft | 290 kts | 112° |
| 2026-04-24 12:05 | 55.68032 | 12.86379 | 7997 ft | 297 kts | 137° |
| 2026-04-24 12:06 | 55.66417 | 12.88739 | 8879 ft | 305 kts | 139° |
| 2026-04-24 12:06 | 55.64772 | 12.91193 | 9769 ft | 309 kts | 139° |
| 2026-04-24 12:06 | 55.63129 | 12.93646 | 10565 ft | 317 kts | 139° |
| 2026-04-24 12:06 | 55.61403 | 12.96255 | 11095 ft | 333 kts | 139° |
| 2026-04-24 12:07 | 55.59598 | 12.99002 | 11543 ft | 352 kts | 139° |
| 2026-04-24 12:07 | 55.57703 | 13.01883 | 12056 ft | 366 kts | 139° |
| 2026-04-24 12:07 | 55.55732 | 13.04862 | 12671 ft | 376 kts | 139° |
| 2026-04-24 12:07 | 55.53721 | 13.07870 | 13525 ft | 379 kts | 139° |
| 2026-04-24 12:08 | 55.51716 | 13.10856 | 14192 ft | 385 kts | 139° |
| 2026-04-24 12:08 | 55.49657 | 13.13911 | 14912 ft | 388 kts | 140° |
| 2026-04-24 12:08 | 55.47578 | 13.16991 | 15584 ft | 392 kts | 140° |
| 2026-04-24 12:08 | 55.45478 | 13.20097 | 16266 ft | 396 kts | 140° |
| 2026-04-24 12:09 | 55.43349 | 13.23237 | 16933 ft | 400 kts | 140° |
| 2026-04-24 12:09 | 55.41198 | 13.26407 | 17581 ft | 404 kts | 140° |
| 2026-04-24 12:09 | 55.39055 | 13.29559 | 18209 ft | 408 kts | 140° |
| 2026-04-24 12:09 | 55.36866 | 13.32774 | 18759 ft | 412 kts | 140° |
| 2026-04-24 12:10 | 55.34653 | 13.36019 | 19309 ft | 416 kts | 140° |
| 2026-04-24 12:10 | 55.32417 | 13.39292 | 19835 ft | 420 kts | 141° |
| 2026-04-24 12:10 | 55.30153 | 13.42600 | 20364 ft | 423 kts | 141° |
| 2026-04-24 12:11 | 55.25657 | 13.49399 | 21368 ft | 431 kts | 131° |
| 2026-04-24 12:11 | 55.23959 | 13.53734 | 21913 ft | 432 kts | 118° |
| 2026-04-24 12:11 | 55.22478 | 13.58294 | 22315 ft | 439 kts | 118° |
| 2026-04-24 12:11 | 55.20975 | 13.62972 | 22856 ft | 441 kts | 118° |
| 2026-04-24 12:12 | 55.19473 | 13.67692 | 23317 ft | 445 kts | 118° |
| 2026-04-24 12:12 | 55.17960 | 13.72463 | 23752 ft | 449 kts | 118° |
| 2026-04-24 12:12 | 55.16437 | 13.77266 | 24157 ft | 452 kts | 118° |
| 2026-04-24 12:12 | 55.14905 | 13.82091 | 24556 ft | 455 kts | 118° |
| 2026-04-24 12:13 | 55.13360 | 13.86949 | 24967 ft | 458 kts | 118° |
| 2026-04-24 12:13 | 55.11797 | 13.91851 | 25355 ft | 461 kts | 118° |
| 2026-04-24 12:13 | 55.10228 | 13.96764 | 25728 ft | 464 kts | 118° |
| 2026-04-24 12:13 | 55.08666 | 14.01646 | 26102 ft | 467 kts | 118° |
| 2026-04-24 12:14 | 55.07073 | 14.06613 | 26473 ft | 470 kts | 118° |
| 2026-04-24 12:14 | 55.05503 | 14.11655 | 26830 ft | 473 kts | 114° |
| 2026-04-24 12:14 | 55.04103 | 14.16862 | 27193 ft | 476 kts | 114° |
| 2026-04-24 12:14 | 55.02673 | 14.22101 | 27555 ft | 478 kts | 115° |
| 2026-04-24 12:15 | 55.01226 | 14.27334 | 27893 ft | 481 kts | 115° |
| 2026-04-24 12:15 | 54.99779 | 14.32536 | 28240 ft | 484 kts | 115° |
| 2026-04-24 12:15 | 54.98303 | 14.37827 | 28581 ft | 487 kts | 115° |
| 2026-04-24 12:15 | 54.96813 | 14.43154 | 28915 ft | 490 kts | 115° |
| 2026-04-24 12:16 | 54.95310 | 14.48517 | 29236 ft | 493 kts | 115° |
| 2026-04-24 12:16 | 54.93798 | 14.53898 | 29565 ft | 495 kts | 115° |
| 2026-04-24 12:16 | 54.92277 | 14.59300 | 29882 ft | 498 kts | 115° |
| 2026-04-24 12:16 | 54.90767 | 14.64649 | 30175 ft | 501 kts | 115° |
| 2026-04-24 12:17 | 54.89222 | 14.70113 | 30434 ft | 503 kts | 115° |
| 2026-04-24 12:17 | 54.87666 | 14.75600 | 30701 ft | 505 kts | 115° |
| 2026-04-24 12:17 | 54.86105 | 14.81089 | 30958 ft | 508 kts | 115° |
| 2026-04-24 12:17 | 54.84534 | 14.86603 | 31217 ft | 510 kts | 115° |
| 2026-04-24 12:18 | 54.82974 | 14.92070 | 31467 ft | 512 kts | 116° |
| 2026-04-24 12:18 | 54.81288 | 14.97541 | 31712 ft | 515 kts | 118° |
| 2026-04-24 12:18 | 54.79581 | 15.03009 | 31952 ft | 517 kts | 117° |
| 2026-04-24 12:18 | 54.77873 | 15.08508 | 32253 ft | 518 kts | 117° |
| 2026-04-24 12:19 | 54.76162 | 15.14010 | 32601 ft | 517 kts | 117° |
| 2026-04-24 12:19 | 54.74470 | 15.19445 | 32943 ft | 517 kts | 117° |
| 2026-04-24 12:19 | 54.72755 | 15.24939 | 33048 ft | 518 kts | 118° |
| 2026-04-24 12:20 | 54.69327 | 15.35884 | 33040 ft | 517 kts | 118° |
| 2026-04-24 12:20 | 54.65893 | 15.46798 | 33037 ft | 516 kts | 118° |
| 2026-04-24 12:21 | 54.62469 | 15.57632 | 33038 ft | 517 kts | 118° |
| 2026-04-24 12:21 | 54.58632 | 15.68123 | 33046 ft | 517 kts | 126° |
| 2026-04-24 12:22 | 54.54421 | 15.78168 | 33041 ft | 517 kts | 126° |
| 2026-04-24 12:22 | 54.50187 | 15.88181 | 33039 ft | 517 kts | 126° |
| 2026-04-24 12:23 | 54.45941 | 15.98185 | 33041 ft | 517 kts | 126° |
| 2026-04-24 12:23 | 54.41713 | 16.08104 | 33042 ft | 517 kts | 126° |
| 2026-04-24 12:24 | 54.37455 | 16.18053 | 33043 ft | 517 kts | 126° |
| 2026-04-24 12:24 | 54.33213 | 16.27928 | 33046 ft | 517 kts | 126° |
| 2026-04-24 12:25 | 54.28938 | 16.37838 | 33043 ft | 516 kts | 127° |
| 2026-04-24 12:25 | 54.24657 | 16.47723 | 33096 ft | 515 kts | 127° |
| 2026-04-24 12:26 | 54.20385 | 16.57549 | 33036 ft | 514 kts | 127° |
| 2026-04-24 12:26 | 54.16108 | 16.67347 | 33029 ft | 514 kts | 127° |
| 2026-04-24 12:27 | 54.11826 | 16.77118 | 33024 ft | 514 kts | 127° |
| 2026-04-24 12:27 | 54.07532 | 16.86880 | 33018 ft | 514 kts | 127° |
| 2026-04-24 12:28 | 54.03260 | 16.96559 | 33016 ft | 514 kts | 127° |
| 2026-04-24 12:28 | 53.98953 | 17.06268 | 33009 ft | 514 kts | 127° |
| 2026-04-24 12:29 | 53.94639 | 17.15959 | 33009 ft | 514 kts | 127° |
| 2026-04-24 12:29 | 53.90316 | 17.25634 | 32998 ft | 514 kts | 127° |
| 2026-04-24 12:30 | 53.85985 | 17.35290 | 32994 ft | 514 kts | 127° |
| 2026-04-24 12:30 | 53.81676 | 17.44859 | 32993 ft | 514 kts | 127° |
| 2026-04-24 12:31 | 53.77340 | 17.54451 | 32993 ft | 514 kts | 127° |
| 2026-04-24 12:31 | 53.72990 | 17.64038 | 32992 ft | 514 kts | 127° |
| 2026-04-24 12:32 | 53.68631 | 17.73608 | 32987 ft | 513 kts | 127° |
| 2026-04-24 12:32 | 53.64268 | 17.83150 | 32985 ft | 513 kts | 127° |
| 2026-04-24 12:33 | 53.59902 | 17.92667 | 32981 ft | 513 kts | 127° |
| 2026-04-24 12:33 | 53.55553 | 18.02108 | 32981 ft | 513 kts | 127° |
| 2026-04-24 12:34 | 53.51173 | 18.11582 | 32975 ft | 513 kts | 127° |
| 2026-04-24 12:34 | 53.46785 | 18.21041 | 32974 ft | 513 kts | 127° |
| 2026-04-24 12:34 | 53.44588 | 18.25764 | 32864 ft | 513 kts | 127° |
| 2026-04-24 12:35 | 53.42391 | 18.30476 | 32427 ft | 511 kts | 127° |
| 2026-04-24 12:35 | 53.40231 | 18.35101 | 32268 ft | 509 kts | 127° |
| 2026-04-24 12:35 | 53.38056 | 18.39751 | 32166 ft | 505 kts | 127° |
| 2026-04-24 12:35 | 53.35893 | 18.44366 | 31665 ft | 502 kts | 127° |
| 2026-04-24 12:36 | 53.33730 | 18.48971 | 30897 ft | 503 kts | 128° |
| 2026-04-24 12:36 | 53.31555 | 18.53593 | 30181 ft | 504 kts | 128° |
| 2026-04-24 12:36 | 53.29389 | 18.58191 | 29558 ft | 501 kts | 128° |
| 2026-04-24 12:36 | 53.27236 | 18.62750 | 28936 ft | 497 kts | 128° |
| 2026-04-24 12:37 | 53.25129 | 18.67206 | 28338 ft | 492 kts | 128° |
| 2026-04-24 12:37 | 53.23005 | 18.71689 | 27742 ft | 488 kts | 128° |
| 2026-04-24 12:37 | 53.20900 | 18.76123 | 27145 ft | 485 kts | 128° |
| 2026-04-24 12:37 | 53.18807 | 18.80524 | 26551 ft | 481 kts | 128° |
| 2026-04-24 12:38 | 53.16732 | 18.84879 | 25969 ft | 478 kts | 128° |
| 2026-04-24 12:38 | 53.14675 | 18.89191 | 25384 ft | 474 kts | 128° |
| 2026-04-24 12:38 | 53.12641 | 18.93447 | 24832 ft | 465 kts | 128° |
| 2026-04-24 12:39 | 53.06693 | 19.05849 | 23054 ft | 442 kts | 128° |
| 2026-04-24 12:39 | 53.04798 | 19.09789 | 22526 ft | 427 kts | 128° |
| 2026-04-24 12:39 | 53.02970 | 19.13581 | 22011 ft | 414 kts | 127° |
| 2026-04-24 12:40 | 53.01182 | 19.17286 | 21498 ft | 403 kts | 128° |
| 2026-04-24 12:40 | 52.99457 | 19.20858 | 21002 ft | 402 kts | 128° |
| 2026-04-24 12:40 | 52.97697 | 19.24493 | 20476 ft | 405 kts | 128° |
| 2026-04-24 12:40 | 52.95930 | 19.28140 | 19989 ft | 403 kts | 128° |
| 2026-04-24 12:41 | 52.94179 | 19.31747 | 19501 ft | 400 kts | 128° |
| 2026-04-24 12:41 | 52.92440 | 19.35325 | 19017 ft | 397 kts | 128° |
| 2026-04-24 12:41 | 52.90709 | 19.38882 | 18526 ft | 396 kts | 128° |
| 2026-04-24 12:41 | 52.88975 | 19.42440 | 18004 ft | 396 kts | 128° |
| 2026-04-24 12:42 | 52.87263 | 19.45947 | 17484 ft | 394 kts | 128° |
| 2026-04-24 12:42 | 52.85545 | 19.49463 | 16990 ft | 392 kts | 128° |
| 2026-04-24 12:42 | 52.83836 | 19.52955 | 16513 ft | 388 kts | 128° |
| 2026-04-24 12:42 | 52.82142 | 19.56411 | 16020 ft | 385 kts | 128° |
| 2026-04-24 12:43 | 52.81023 | 19.58693 | 15690 ft | 384 kts | 128° |
| 2026-04-24 12:43 | 52.79342 | 19.62114 | 15223 ft | 381 kts | 128° |
| 2026-04-24 12:43 | 52.77677 | 19.65499 | 14755 ft | 378 kts | 128° |
| 2026-04-24 12:43 | 52.75485 | 19.69947 | 14126 ft | 375 kts | 128° |
| 2026-04-24 12:44 | 52.74373 | 19.72204 | 13814 ft | 374 kts | 128° |
| 2026-04-24 12:44 | 52.72736 | 19.75520 | 13275 ft | 371 kts | 128° |
| 2026-04-24 12:44 | 52.71060 | 19.78662 | 12865 ft | 367 kts | 138° |
| 2026-04-24 12:44 | 52.68908 | 19.80771 | 12688 ft | 355 kts | 161° |
| 2026-04-24 12:45 | 52.66521 | 19.81409 | 12555 ft | 344 kts | 182° |
| 2026-04-24 12:45 | 52.64161 | 19.81155 | 12391 ft | 335 kts | 185° |
| 2026-04-24 12:45 | 52.61868 | 19.80873 | 12198 ft | 326 kts | 186° |
| 2026-04-24 12:45 | 52.59641 | 19.80580 | 12011 ft | 316 kts | 186° |
| 2026-04-24 12:46 | 52.57507 | 19.80288 | 11829 ft | 307 kts | 186° |
| 2026-04-24 12:46 | 52.55411 | 19.79997 | 11658 ft | 298 kts | 186° |
| 2026-04-24 12:46 | 52.53368 | 19.79710 | 11486 ft | 289 kts | 186° |
| 2026-04-24 12:46 | 52.51384 | 19.79432 | 11322 ft | 281 kts | 186° |
| 2026-04-24 12:47 | 52.48843 | 19.79074 | 11107 ft | 272 kts | 186° |
| 2026-04-24 12:47 | 52.47581 | 19.78897 | 10999 ft | 274 kts | 186° |
| 2026-04-24 12:47 | 52.45678 | 19.78628 | 10834 ft | 274 kts | 186° |
| 2026-04-24 12:47 | 52.43779 | 19.78361 | 10683 ft | 273 kts | 186° |
| 2026-04-24 12:48 | 52.41881 | 19.78252 | 10500 ft | 273 kts | 173° |
| 2026-04-24 12:48 | 52.40134 | 19.79289 | 10316 ft | 271 kts | 144° |
| 2026-04-24 12:48 | 52.38860 | 19.81503 | 10176 ft | 267 kts | 117° |
| 2026-04-24 12:48 | 52.38295 | 19.84346 | 10039 ft | 263 kts | 91° |
| 2026-04-24 12:49 | 52.38365 | 19.87324 | 9911 ft | 261 kts | 81° |
| 2026-04-24 12:49 | 52.38544 | 19.90278 | 9739 ft | 260 kts | 81° |
| 2026-04-24 12:49 | 52.38742 | 19.93193 | 9572 ft | 260 kts | 80° |
| 2026-04-24 12:49 | 52.38952 | 19.96136 | 9418 ft | 259 kts | 80° |
| 2026-04-24 12:50 | 52.39170 | 19.99064 | 9271 ft | 258 kts | 80° |
| 2026-04-24 12:50 | 52.39392 | 20.01982 | 9122 ft | 258 kts | 80° |
| 2026-04-24 12:50 | 52.39613 | 20.04861 | 8984 ft | 257 kts | 80° |
| 2026-04-24 12:50 | 52.39837 | 20.07762 | 8835 ft | 257 kts | 80° |
| 2026-04-24 12:51 | 52.40061 | 20.10657 | 8679 ft | 256 kts | 80° |
| 2026-04-24 12:51 | 52.40284 | 20.13547 | 8537 ft | 256 kts | 80° |
| 2026-04-24 12:51 | 52.40509 | 20.16437 | 8390 ft | 255 kts | 79° |
| 2026-04-24 12:51 | 52.41085 | 20.19128 | 8205 ft | 247 kts | 51° |
| 2026-04-24 12:52 | 52.42292 | 20.20949 | 8118 ft | 231 kts | 29° |
| 2026-04-24 12:52 | 52.43631 | 20.22304 | 8006 ft | 220 kts | 28° |
| 2026-04-24 12:52 | 52.44918 | 20.23569 | 7878 ft | 211 kts | 27° |
| 2026-04-24 12:52 | 52.46157 | 20.24763 | 7748 ft | 202 kts | 26° |
| 2026-04-24 12:53 | 52.47353 | 20.25902 | 7630 ft | 198 kts | 26° |
| 2026-04-24 12:53 | 52.48556 | 20.27039 | 7539 ft | 201 kts | 26° |
| 2026-04-24 12:53 | 52.49642 | 20.28485 | 7389 ft | 205 kts | 52° |
| 2026-04-24 12:53 | 52.50157 | 20.30683 | 7277 ft | 210 kts | 76° |
| 2026-04-24 12:54 | 52.50424 | 20.33063 | 7198 ft | 213 kts | 76° |
| 2026-04-24 12:54 | 52.50678 | 20.35419 | 7052 ft | 212 kts | 77° |
| 2026-04-24 12:54 | 52.50925 | 20.37803 | 6915 ft | 212 kts | 77° |
| 2026-04-24 12:54 | 52.51166 | 20.40186 | 6782 ft | 211 kts | 77° |
| 2026-04-24 12:55 | 52.51403 | 20.42569 | 6673 ft | 211 kts | 77° |
| 2026-04-24 12:55 | 52.51634 | 20.44948 | 6565 ft | 211 kts | 78° |
| 2026-04-24 12:55 | 52.51865 | 20.47330 | 6443 ft | 211 kts | 77° |
| 2026-04-24 12:55 | 52.52094 | 20.49716 | 6339 ft | 211 kts | 78° |
| 2026-04-24 12:56 | 52.52319 | 20.52087 | 6210 ft | 210 kts | 78° |
| 2026-04-24 12:56 | 52.52538 | 20.54399 | 6090 ft | 203 kts | 78° |
| 2026-04-24 12:56 | 52.52754 | 20.56672 | 5979 ft | 199 kts | 77° |
| 2026-04-24 12:56 | 52.52965 | 20.58909 | 5843 ft | 197 kts | 77° |
| 2026-04-24 12:57 | 52.53174 | 20.61129 | 5731 ft | 197 kts | 78° |
| 2026-04-24 12:57 | 52.53381 | 20.63352 | 5634 ft | 196 kts | 78° |
| 2026-04-24 12:57 | 52.53584 | 20.65531 | 5519 ft | 195 kts | 77° |
| 2026-04-24 12:57 | 52.53791 | 20.67732 | 5392 ft | 195 kts | 78° |
| 2026-04-24 12:58 | 52.53995 | 20.69927 | 5298 ft | 195 kts | 78° |
| 2026-04-24 12:58 | 52.54199 | 20.72125 | 5192 ft | 194 kts | 78° |
| 2026-04-24 12:58 | 52.54403 | 20.74316 | 5087 ft | 194 kts | 78° |
| 2026-04-24 12:58 | 52.54605 | 20.76507 | 5001 ft | 194 kts | 78° |
| 2026-04-24 12:59 | 52.54807 | 20.78702 | 4890 ft | 193 kts | 78° |
| 2026-04-24 12:59 | 52.55009 | 20.80877 | 4781 ft | 193 kts | 78° |
| 2026-04-24 12:59 | 52.55206 | 20.83037 | 4692 ft | 193 kts | 78° |
| 2026-04-24 12:59 | 52.55405 | 20.85209 | 4566 ft | 191 kts | 78° |
| 2026-04-24 13:00 | 52.55603 | 20.87369 | 4443 ft | 191 kts | 78° |
| 2026-04-24 13:00 | 52.55802 | 20.89529 | 4344 ft | 190 kts | 79° |
| 2026-04-24 13:00 | 52.55941 | 20.91698 | 4228 ft | 192 kts | 93° |
| 2026-04-24 13:00 | 52.55447 | 20.93703 | 4069 ft | 192 kts | 131° |
| 2026-04-24 13:01 | 52.54377 | 20.94897 | 3967 ft | 190 kts | 164° |
| 2026-04-24 13:01 | 52.53085 | 20.95366 | 3911 ft | 190 kts | 172° |
| 2026-04-24 13:01 | 52.51782 | 20.95741 | 3837 ft | 190 kts | 173° |
| 2026-04-24 13:01 | 52.50480 | 20.96094 | 3678 ft | 189 kts | 174° |
| 2026-04-24 13:02 | 52.49214 | 20.95839 | 3470 ft | 181 kts | 212° |
| 2026-04-24 13:02 | 52.48292 | 20.94531 | 3391 ft | 174 kts | 235° |
| 2026-04-24 13:02 | 52.47693 | 20.92811 | 3373 ft | 174 kts | 251° |
| 2026-04-24 13:02 | 52.47371 | 20.90899 | 3201 ft | 173 kts | 262° |
| 2026-04-24 13:03 | 52.47197 | 20.88958 | 2990 ft | 171 kts | 264° |
| 2026-04-24 13:03 | 52.47038 | 20.87058 | 2777 ft | 167 kts | 263° |
| 2026-04-24 13:03 | 52.46883 | 20.85236 | 2617 ft | 158 kts | 263° |
| 2026-04-24 13:03 | 52.46731 | 20.83460 | 2408 ft | 157 kts | 264° |
| 2026-04-24 13:04 | 52.46581 | 20.81688 | 2188 ft | 154 kts | 263° |
| 2026-04-24 13:04 | 52.46434 | 20.79994 | 1984 ft | 144 kts | 263° |
| 2026-04-24 13:04 | 52.46299 | 20.78414 | 1790 ft | 139 kts | 264° |
| 2026-04-24 13:04 | 52.46163 | 20.76853 | 1583 ft | 137 kts | 263° |
| 2026-04-24 13:05 | 52.46027 | 20.75307 | 1425 ft | 137 kts | 264° |
| 2026-04-24 13:05 | 52.45897 | 20.73775 | 1211 ft | 137 kts | 264° |
| 2026-04-24 13:05 | 52.45757 | 20.72228 | 1018 ft | 136 kts | 264° |
| 2026-04-24 13:05 | 52.45622 | 20.70704 | 829 ft | 135 kts | 265° |
| 2026-04-24 13:06 | 52.45488 | 20.69182 | 650 ft | 135 kts | 263° |
| 2026-04-24 13:06 | 52.45352 | 20.67656 | 457 ft | 135 kts | 264° |
| 2026-04-24 13:06 | 52.45214 | 20.66159 | 347 ft | 125 kts | 264° |
| 2026-04-24 13:06 | 52.45108 | 20.65036 | 336 ft | 66 kts | 262° |
| 2026-04-24 13:07 | 52.45063 | 20.64559 | 338 ft | 20 kts | 260° |
| 2026-04-24 13:07 | 52.45017 | 20.64392 | 347 ft | 13 kts | 206° |
| 2026-04-24 13:07 | 52.44900 | 20.64383 | 339 ft | 20 kts | 182° |
| 2026-04-24 13:07 | 52.44759 | 20.64373 | 340 ft | 17 kts | 179° |
| 2026-04-24 13:08 | 52.44713 | 20.64423 | 340 ft | 5 kts | 97° |
| 2026-04-24 13:08 | 52.44723 | 20.64546 | 339 ft | 18 kts | 79° |
| 2026-04-24 13:08 | 52.44751 | 20.64816 | 336 ft | 27 kts | 82° |
| 2026-04-24 13:09 | 52.44785 | 20.65250 | 340 ft | 6 kts | 113° |
| 2026-04-24 13:09 | 52.44767 | 20.65262 | 339 ft | 1 kts | 202° |
| 2026-04-24 13:09 | 52.44764 | 20.65261 | 340 ft | 1 kts | 187° |
| 2026-04-24 13:09 | 52.44748 | 20.65257 | 340 ft | 5 kts | 194° |
| 2026-04-24 13:10 | 52.44745 | 20.65256 | 339 ft | 0 kts | 199° |